White Point — IBAE — position and weather

sailwx.info

Track history (hours):
 
Tides and Currents Weather Stations Pressure Air Temp Water Temp Dewpoint Dewpoint Depression Visibility Wind Speed Wind Dir Waves Ship Positions

White Point

Last reported at 2015-Apr-20 13:32 UTC. Time now 2015-May-06 02:23 UTC.
Position N 38°14' E 015°36'.
Warning: this ship's position is 15 days out of date.

Length 183 m; draft 1.1 m.

Type: Ship (hazmat cat D). MMSI: 247087400.

Date/timePositionNaut miles runAvg speedWind from/ knotsBaromVisibWave heightAir tempDewpointWater temp
2015-Apr-20 13:32N 38°14' E 015°36'7 6.9
2015-Apr-20 12:33N 38°19' E 015°30'1312.8
2015-Apr-20 11:33N 38°13' E 015°16'0 0.0
2015-Apr-20 10:28N 38°13' E 015°16'0 0.0
2015-Apr-20 09:28N 38°13' E 015°16'0 0.0
2015-Apr-20 08:28N 38°13' E 015°16'0 0.0
2015-Apr-20 07:28N 38°13' E 015°16'0 0.0
2015-Apr-20 06:28N 38°13' E 015°16'0 0.0
2015-Apr-20 05:28N 38°13' E 015°16'0 0.0
2015-Apr-20 04:28N 38°13' E 015°16'0 0.0
2015-Apr-20 03:28N 38°13' E 015°16'0 0.0
2015-Apr-20 02:28N 38°13' E 015°16'0 0.0
2015-Apr-20 01:28N 38°13' E 015°16'0 0.0
2015-Apr-20 00:28N 38°13' E 015°16'0 0.0
2015-Apr-19 23:28N 38°13' E 015°16'0 0.0
2015-Apr-19 22:28N 38°13' E 015°16'0 0.0
2015-Apr-19 21:28N 38°13' E 015°16'0 0.0
2015-Apr-19 20:28N 38°13' E 015°16'0 0.0
2015-Apr-19 19:28N 38°13' E 015°16'0 0.0
2015-Apr-19 18:28N 38°13' E 015°16'0 0.0
2015-Apr-19 17:28N 38°13' E 015°16'0 0.0
2015-Apr-19 16:28N 38°13' E 015°16'0 0.0
2015-Apr-19 15:28N 38°13' E 015°16'0 0.2
2015-Apr-19 14:33N 38°13' E 015°16'1 1.3
2015-Apr-19 13:29N 38°13' E 015°18'0 0.0
2015-Apr-19 12:29N 38°13' E 015°18'0 0.0
2015-Apr-19 11:29N 38°13' E 015°18'0 0.0
2015-Apr-19 10:29N 38°13' E 015°18'0 0.1
2015-Apr-19 09:29N 38°13' E 015°18'0 0.0
2015-Apr-19 08:29N 38°13' E 015°18'0 0.0
2015-Apr-19 07:29N 38°13' E 015°18'0 0.1
2015-Apr-19 06:29N 38°13' E 015°18'0 0.0
2015-Apr-19 05:29N 38°13' E 015°18'0 0.0
2015-Apr-19 04:29N 38°13' E 015°18'0 0.0
2015-Apr-19 03:29N 38°13' E 015°18'0 0.0
2015-Apr-19 02:29N 38°13' E 015°18'0 0.0
2015-Apr-19 01:29N 38°13' E 015°18'0 0.0
2015-Apr-19 00:29N 38°13' E 015°18'0 0.0
2015-Apr-18 23:29N 38°13' E 015°18'0 0.0
2015-Apr-18 22:29N 38°13' E 015°18'0 0.0
2015-Apr-18 21:29N 38°13' E 015°18'0 0.0
2015-Apr-18 20:29N 38°13' E 015°18'0 0.0
2015-Apr-18 19:29N 38°13' E 015°18'0 0.0
2015-Apr-18 18:29N 38°13' E 015°18'0 0.0
2015-Apr-18 17:29N 38°13' E 015°18'0 0.0
2015-Apr-18 16:29N 38°13' E 015°18'0 0.0
2015-Apr-18 15:29N 38°13' E 015°18'0 0.0
2015-Apr-18 14:29N 38°13' E 015°18'0 0.0
2015-Apr-18 13:29N 38°13' E 015°18'0 0.0
2015-Apr-18 12:29N 38°13' E 015°18'0 0.0
2015-Apr-18 11:29N 38°13' E 015°18'0 0.0
2015-Apr-18 10:29N 38°13' E 015°18'0 0.0
2015-Apr-18 09:29N 38°13' E 015°18'0 0.0
2015-Apr-18 08:29N 38°13' E 015°18'0 0.0
2015-Apr-18 07:29N 38°13' E 015°18'0 0.1
2015-Apr-18 06:29N 38°13' E 015°18'0 0.0
2015-Apr-18 05:29N 38°13' E 015°18'81 5.4
2015-Apr-17 14:31N 39°28' E 014°36'1514.0
2015-Apr-17 13:27N 39°41' E 014°27'1214.0
2015-Apr-17 12:33N 39°52' E 014°19'1414.0
2015-Apr-17 11:33N 40°04' E 014°11'1414.0
2015-Apr-17 10:33N 40°16' E 014°02'1413.5
2015-Apr-17 09:33N 40°28' E 013°53'1413.7
2015-Apr-17 08:33N 40°40' E 013°45'1413.9
2015-Apr-17 07:34N 40°54' E 013°41'1414.3
2015-Apr-17 06:34N 41°08' E 013°38'6 3.0
2015-Apr-17 04:29N 41°13' E 013°34'0 0.0
2015-Apr-16 22:32N 41°13' E 013°34'0 0.0
2015-Apr-16 16:29N 41°13' E 013°34'0 0.0
2015-Apr-16 15:32N 41°13' E 013°34'0 0.0
2015-Apr-16 14:29N 41°13' E 013°34'1 0.1
2015-Apr-16 05:26N 41°13' E 013°35'4 1.8
2015-Apr-16 03:20N 41°12' E 013°40'1 0.2
2015-Apr-15 23:31N 41°12' E 013°40'1313.2
2015-Apr-15 22:33N 40°59' E 013°40'1413.8
2015-Apr-15 21:33N 40°45' E 013°43'1413.9
2015-Apr-15 20:33N 40°32' E 013°49'1713.9
2015-Apr-15 19:21N 40°17' E 013°60'2513.6
2015-Apr-15 17:33N 39°56' E 014°14'10213.7
2015-Apr-15 10:04N 38°25' E 015°16'1013.6
2015-Apr-15 09:21N 38°15' E 015°16'3 3.0
2015-Apr-15 08:30N 38°13' E 015°16'0 0.0
2015-Apr-15 07:30N 38°13' E 015°16'0 0.0
2015-Apr-15 06:30N 38°13' E 015°16'0 0.0
2015-Apr-15 05:30N 38°13' E 015°16'0 0.0
2015-Apr-14 18:18N 38°13' E 015°16'0 0.0
2015-Apr-14 17:30N 38°13' E 015°16'0 0.0
2015-Apr-14 16:30N 38°13' E 015°16'0 0.0
2015-Apr-14 15:30N 38°13' E 015°16'0 0.0
2015-Apr-14 14:30N 38°13' E 015°16'0 0.0
2015-Apr-14 13:30N 38°13' E 015°16'0 0.0
2015-Apr-14 12:30N 38°13' E 015°16'0 0.0
2015-Apr-14 11:30N 38°13' E 015°16'0 0.0
2015-Apr-14 10:30N 38°13' E 015°16'1 0.1
2015-Apr-13 17:32N 38°13' E 015°17'0 0.0
2015-Apr-13 16:32N 38°13' E 015°17'0 0.0
2015-Apr-13 15:29N 38°13' E 015°17'0 0.0
2015-Apr-13 14:29N 38°13' E 015°17'0 0.0
2015-Apr-13 13:29N 38°13' E 015°17'0 0.0
2015-Apr-13 12:29N 38°13' E 015°17'0 0.0
2015-Apr-13 11:29N 38°13' E 015°17'0 0.1
2015-Apr-13 10:29N 38°13' E 015°17'0 0.0
2015-Apr-13 09:32N 38°13' E 015°17'0 0.0
2015-Apr-13 08:32N 38°13' E 015°17'0 0.0
2015-Apr-13 07:32N 38°13' E 015°17'0 0.1
2015-Apr-13 06:32N 38°13' E 015°17'0 0.0
2015-Apr-13 05:32N 38°13' E 015°17'0 0.0
2015-Apr-12 16:26N 38°13' E 015°17'0 0.0
2015-Apr-12 15:32N 38°13' E 015°17'0 0.0
2015-Apr-12 14:32N 38°13' E 015°17'0 0.0
2015-Apr-12 13:32N 38°13' E 015°17'0 0.0
2015-Apr-12 12:32N 38°13' E 015°17'0 0.0
2015-Apr-12 11:32N 38°13' E 015°17'0 0.0
2015-Apr-12 10:32N 38°13' E 015°17'0 0.0
2015-Apr-12 09:32N 38°13' E 015°17'0 0.1
2015-Apr-12 08:32N 38°13' E 015°17'0 0.0
2015-Apr-12 07:32N 38°13' E 015°17'0 0.1
2015-Apr-12 06:32N 38°13' E 015°17'0 0.0
2015-Apr-12 05:32N 38°13' E 015°17'0 0.1
2015-Apr-12 04:32N 38°13' E 015°17'0 0.0
2015-Apr-12 03:32N 38°13' E 015°17'0 0.0
2015-Apr-12 02:32N 38°13' E 015°17'0 0.0
2015-Apr-12 01:32N 38°13' E 015°17'0 0.0
2015-Apr-12 00:32N 38°13' E 015°17'0 0.0
2015-Apr-11 23:33N 38°13' E 015°17'0 0.0
2015-Apr-11 22:32N 38°13' E 015°17'0 0.0
2015-Apr-11 21:32N 38°13' E 015°17'0 0.0
2015-Apr-11 20:32N 38°13' E 015°17'0 0.0
2015-Apr-11 19:32N 38°13' E 015°17'0 0.1
2015-Apr-11 18:32N 38°13' E 015°17'0 0.0
2015-Apr-11 17:32N 38°13' E 015°17'0 0.0
2015-Apr-11 16:32N 38°13' E 015°17'0 0.0
2015-Apr-11 15:32N 38°13' E 015°17'0 0.0
2015-Apr-11 14:32N 38°13' E 015°17'0 0.0
2015-Apr-11 13:32N 38°13' E 015°17'0 0.0
2015-Apr-11 12:32N 38°13' E 015°17'0 0.0
2015-Apr-11 11:32N 38°13' E 015°17'0 0.0
2015-Apr-11 10:32N 38°13' E 015°17'0 0.0
2015-Apr-11 09:32N 38°13' E 015°17'0 0.0
2015-Apr-11 08:32N 38°13' E 015°17'0 0.0
2015-Apr-11 07:32N 38°13' E 015°17'0 0.2
2015-Apr-11 06:33N 38°13' E 015°18'1010.3
2015-Apr-11 05:33N 38°18' E 015°29'9 6.1
2015-Apr-11 04:10N 38°13' E 015°37'913.2
2015-Apr-11 03:30N 38°04' E 015°36'13711.2
2015-Apr-10 15:18N 39°29' E 017°54'1013.9
2015-Apr-10 14:33N 39°35' E 018°05'1414.5
2015-Apr-10 13:34N 39°44' E 018°20'  
Track history (hours):
 
Tides and Currents Weather Stations Pressure Air Temp Water Temp Dewpoint Dewpoint Depression Visibility Wind Speed Wind Dir Waves Ship Positions

White Point

Last reported at 2015-Apr-20 13:32 UTC. Time now 2015-May-06 02:23 UTC.
Position N 38°14' E 015°36'.
Warning: this ship's position is 15 days out of date.

Length 183 m; draft 1.1 m.

Type: Ship (hazmat cat D). MMSI: 247087400.

Date/timePositionNaut miles runAvg speedWind from/ knotsBaromVisibWave heightAir tempDewpointWater temp
2015-Apr-20 13:32N 38°14' E 015°36'7 6.9
2015-Apr-20 12:33N 38°19' E 015°30'1312.8
2015-Apr-20 11:33N 38°13' E 015°16'0 0.0
2015-Apr-20 10:28N 38°13' E 015°16'0 0.0
2015-Apr-20 09:28N 38°13' E 015°16'0 0.0
2015-Apr-20 08:28N 38°13' E 015°16'0 0.0
2015-Apr-20 07:28N 38°13' E 015°16'0 0.0
2015-Apr-20 06:28N 38°13' E 015°16'0 0.0
2015-Apr-20 05:28N 38°13' E 015°16'0 0.0
2015-Apr-20 04:28N 38°13' E 015°16'0 0.0
2015-Apr-20 03:28N 38°13' E 015°16'0 0.0
2015-Apr-20 02:28N 38°13' E 015°16'0 0.0
2015-Apr-20 01:28N 38°13' E 015°16'0 0.0
2015-Apr-20 00:28N 38°13' E 015°16'0 0.0
2015-Apr-19 23:28N 38°13' E 015°16'0 0.0
2015-Apr-19 22:28N 38°13' E 015°16'0 0.0
2015-Apr-19 21:28N 38°13' E 015°16'0 0.0
2015-Apr-19 20:28N 38°13' E 015°16'0 0.0
2015-Apr-19 19:28N 38°13' E 015°16'0 0.0
2015-Apr-19 18:28N 38°13' E 015°16'0 0.0
2015-Apr-19 17:28N 38°13' E 015°16'0 0.0
2015-Apr-19 16:28N 38°13' E 015°16'0 0.0
2015-Apr-19 15:28N 38°13' E 015°16'0 0.2
2015-Apr-19 14:33N 38°13' E 015°16'1 1.3
2015-Apr-19 13:29N 38°13' E 015°18'0 0.0
2015-Apr-19 12:29N 38°13' E 015°18'0 0.0
2015-Apr-19 11:29N 38°13' E 015°18'0 0.0
2015-Apr-19 10:29N 38°13' E 015°18'0 0.1
2015-Apr-19 09:29N 38°13' E 015°18'0 0.0
2015-Apr-19 08:29N 38°13' E 015°18'0 0.0
2015-Apr-19 07:29N 38°13' E 015°18'0 0.1
2015-Apr-19 06:29N 38°13' E 015°18'0 0.0
2015-Apr-19 05:29N 38°13' E 015°18'0 0.0
2015-Apr-19 04:29N 38°13' E 015°18'0 0.0
2015-Apr-19 03:29N 38°13' E 015°18'0 0.0
2015-Apr-19 02:29N 38°13' E 015°18'0 0.0
2015-Apr-19 01:29N 38°13' E 015°18'0 0.0
2015-Apr-19 00:29N 38°13' E 015°18'0 0.0
2015-Apr-18 23:29N 38°13' E 015°18'0 0.0
2015-Apr-18 22:29N 38°13' E 015°18'0 0.0
2015-Apr-18 21:29N 38°13' E 015°18'0 0.0
2015-Apr-18 20:29N 38°13' E 015°18'0 0.0
2015-Apr-18 19:29N 38°13' E 015°18'0 0.0
2015-Apr-18 18:29N 38°13' E 015°18'0 0.0
2015-Apr-18 17:29N 38°13' E 015°18'0 0.0
2015-Apr-18 16:29N 38°13' E 015°18'0 0.0
2015-Apr-18 15:29N 38°13' E 015°18'0 0.0
2015-Apr-18 14:29N 38°13' E 015°18'0 0.0
2015-Apr-18 13:29N 38°13' E 015°18'0 0.0
2015-Apr-18 12:29N 38°13' E 015°18'0 0.0
2015-Apr-18 11:29N 38°13' E 015°18'0 0.0
2015-Apr-18 10:29N 38°13' E 015°18'0 0.0
2015-Apr-18 09:29N 38°13' E 015°18'0 0.0
2015-Apr-18 08:29N 38°13' E 015°18'0 0.0
2015-Apr-18 07:29N 38°13' E 015°18'0 0.1
2015-Apr-18 06:29N 38°13' E 015°18'0 0.0
2015-Apr-18 05:29N 38°13' E 015°18'81 5.4
2015-Apr-17 14:31N 39°28' E 014°36'1514.0
2015-Apr-17 13:27N 39°41' E 014°27'1214.0
2015-Apr-17 12:33N 39°52' E 014°19'1414.0
2015-Apr-17 11:33N 40°04' E 014°11'1414.0
2015-Apr-17 10:33N 40°16' E 014°02'1413.5
2015-Apr-17 09:33N 40°28' E 013°53'1413.7
2015-Apr-17 08:33N 40°40' E 013°45'1413.9
2015-Apr-17 07:34N 40°54' E 013°41'1414.3
2015-Apr-17 06:34N 41°08' E 013°38'6 3.0
2015-Apr-17 04:29N 41°13' E 013°34'0 0.0
2015-Apr-16 22:32N 41°13' E 013°34'0 0.0
2015-Apr-16 16:29N 41°13' E 013°34'0 0.0
2015-Apr-16 15:32N 41°13' E 013°34'0 0.0
2015-Apr-16 14:29N 41°13' E 013°34'1 0.1
2015-Apr-16 05:26N 41°13' E 013°35'4 1.8
2015-Apr-16 03:20N 41°12' E 013°40'1 0.2
2015-Apr-15 23:31N 41°12' E 013°40'1313.2
2015-Apr-15 22:33N 40°59' E 013°40'1413.8
2015-Apr-15 21:33N 40°45' E 013°43'1413.9
2015-Apr-15 20:33N 40°32' E 013°49'1713.9
2015-Apr-15 19:21N 40°17' E 013°60'2513.6
2015-Apr-15 17:33N 39°56' E 014°14'10213.7
2015-Apr-15 10:04N 38°25' E 015°16'1013.6
2015-Apr-15 09:21N 38°15' E 015°16'3 3.0
2015-Apr-15 08:30N 38°13' E 015°16'0 0.0
2015-Apr-15 07:30N 38°13' E 015°16'0 0.0
2015-Apr-15 06:30N 38°13' E 015°16'0 0.0
2015-Apr-15 05:30N 38°13' E 015°16'0 0.0
2015-Apr-14 18:18N 38°13' E 015°16'0 0.0
2015-Apr-14 17:30N 38°13' E 015°16'0 0.0
2015-Apr-14 16:30N 38°13' E 015°16'0 0.0
2015-Apr-14 15:30N 38°13' E 015°16'0 0.0
2015-Apr-14 14:30N 38°13' E 015°16'0 0.0
2015-Apr-14 13:30N 38°13' E 015°16'0 0.0
2015-Apr-14 12:30N 38°13' E 015°16'0 0.0
2015-Apr-14 11:30N 38°13' E 015°16'0 0.0
2015-Apr-14 10:30N 38°13' E 015°16'1 0.1
2015-Apr-13 17:32N 38°13' E 015°17'0 0.0
2015-Apr-13 16:32N 38°13' E 015°17'0 0.0
2015-Apr-13 15:29N 38°13' E 015°17'0 0.0
2015-Apr-13 14:29N 38°13' E 015°17'0 0.0
2015-Apr-13 13:29N 38°13' E 015°17'0 0.0
2015-Apr-13 12:29N 38°13' E 015°17'0 0.0
2015-Apr-13 11:29N 38°13' E 015°17'0 0.1
2015-Apr-13 10:29N 38°13' E 015°17'0 0.0
2015-Apr-13 09:32N 38°13' E 015°17'0 0.0
2015-Apr-13 08:32N 38°13' E 015°17'0 0.0
2015-Apr-13 07:32N 38°13' E 015°17'0 0.1
2015-Apr-13 06:32N 38°13' E 015°17'0 0.0
2015-Apr-13 05:32N 38°13' E 015°17'0 0.0
2015-Apr-12 16:26N 38°13' E 015°17'0 0.0
2015-Apr-12 15:32N 38°13' E 015°17'0 0.0
2015-Apr-12 14:32N 38°13' E 015°17'0 0.0
2015-Apr-12 13:32N 38°13' E 015°17'0 0.0
2015-Apr-12 12:32N 38°13' E 015°17'0 0.0
2015-Apr-12 11:32N 38°13' E 015°17'0 0.0
2015-Apr-12 10:32N 38°13' E 015°17'0 0.0
2015-Apr-12 09:32N 38°13' E 015°17'0 0.1
2015-Apr-12 08:32N 38°13' E 015°17'0 0.0
2015-Apr-12 07:32N 38°13' E 015°17'0 0.1
2015-Apr-12 06:32N 38°13' E 015°17'0 0.0
2015-Apr-12 05:32N 38°13' E 015°17'0 0.1
2015-Apr-12 04:32N 38°13' E 015°17'0 0.0
2015-Apr-12 03:32N 38°13' E 015°17'0 0.0
2015-Apr-12 02:32N 38°13' E 015°17'0 0.0
2015-Apr-12 01:32N 38°13' E 015°17'0 0.0
2015-Apr-12 00:32N 38°13' E 015°17'0 0.0
2015-Apr-11 23:33N 38°13' E 015°17'0 0.0
2015-Apr-11 22:32N 38°13' E 015°17'0 0.0
2015-Apr-11 21:32N 38°13' E 015°17'0 0.0
2015-Apr-11 20:32N 38°13' E 015°17'0 0.0
2015-Apr-11 19:32N 38°13' E 015°17'0 0.1
2015-Apr-11 18:32N 38°13' E 015°17'0 0.0
2015-Apr-11 17:32N 38°13' E 015°17'0 0.0
2015-Apr-11 16:32N 38°13' E 015°17'0 0.0
2015-Apr-11 15:32N 38°13' E 015°17'0 0.0
2015-Apr-11 14:32N 38°13' E 015°17'0 0.0
2015-Apr-11 13:32N 38°13' E 015°17'0 0.0
2015-Apr-11 12:32N 38°13' E 015°17'0 0.0
2015-Apr-11 11:32N 38°13' E 015°17'0 0.0
2015-Apr-11 10:32N 38°13' E 015°17'0 0.0
2015-Apr-11 09:32N 38°13' E 015°17'0 0.0
2015-Apr-11 08:32N 38°13' E 015°17'0 0.0
2015-Apr-11 07:32N 38°13' E 015°17'0 0.2
2015-Apr-11 06:33N 38°13' E 015°18'1010.3
2015-Apr-11 05:33N 38°18' E 015°29'9 6.1
2015-Apr-11 04:10N 38°13' E 015°37'913.2
2015-Apr-11 03:30N 38°04' E 015°36'13711.2
2015-Apr-10 15:18N 39°29' E 017°54'1013.9
2015-Apr-10 14:33N 39°35' E 018°05'1414.5
2015-Apr-10 13:34N 39°44' E 018°20'  

Dump ship's entire track history